sensor_id;sensor_type;location;lat;lon;timestamp;P1;durP1;ratioP1;P2;durP2;ratioP2
3849;SDS011;1940;51.052;13.678;2022-07-29T00:01:15;3.53;;;2.03;;
3849;SDS011;1940;51.052;13.678;2022-07-29T00:03:41;3.27;;;2.00;;
3849;SDS011;1940;51.052;13.678;2022-07-29T00:06:07;3.00;;;2.17;;
3849;SDS011;1940;51.052;13.678;2022-07-29T00:08:32;3.73;;;2.10;;
3849;SDS011;1940;51.052;13.678;2022-07-29T00:10:58;4.00;;;2.20;;
3849;SDS011;1940;51.052;13.678;2022-07-29T00:13:23;4.23;;;2.07;;
3849;SDS011;1940;51.052;13.678;2022-07-29T00:15:49;9.27;;;2.50;;
3849;SDS011;1940;51.052;13.678;2022-07-29T00:18:14;5.10;;;2.30;;
3849;SDS011;1940;51.052;13.678;2022-07-29T00:20:40;3.97;;;2.17;;
3849;SDS011;1940;51.052;13.678;2022-07-29T00:23:06;11.00;;;2.80;;
3849;SDS011;1940;51.052;13.678;2022-07-29T00:25:31;4.03;;;2.73;;
3849;SDS011;1940;51.052;13.678;2022-07-29T00:27:57;4.30;;;2.20;;
3849;SDS011;1940;51.052;13.678;2022-07-29T00:30:23;11.13;;;2.60;;
3849;SDS011;1940;51.052;13.678;2022-07-29T00:32:48;3.73;;;1.90;;
3849;SDS011;1940;51.052;13.678;2022-07-29T00:35:14;3.27;;;2.13;;
3849;SDS011;1940;51.052;13.678;2022-07-29T00:37:58;2.67;;;2.10;;
3849;SDS011;1940;51.052;13.678;2022-07-29T00:40:24;3.10;;;1.90;;
3849;SDS011;1940;51.052;13.678;2022-07-29T00:42:50;3.87;;;2.63;;
3849;SDS011;1940;51.052;13.678;2022-07-29T00:45:17;4.03;;;2.00;;
3849;SDS011;1940;51.052;13.678;2022-07-29T00:47:44;2.87;;;1.93;;
3849;SDS011;1940;51.052;13.678;2022-07-29T00:50:10;9.00;;;2.17;;
3849;SDS011;1940;51.052;13.678;2022-07-29T00:52:38;5.93;;;1.97;;
3849;SDS011;1940;51.052;13.678;2022-07-29T00:55:05;2.63;;;1.93;;
3849;SDS011;1940;51.052;13.678;2022-07-29T00:57:32;3.33;;;1.97;;
3849;SDS011;1940;51.052;13.678;2022-07-29T00:59:58;4.20;;;2.17;;
3849;SDS011;1940;51.052;13.678;2022-07-29T01:02:24;8.57;;;2.67;;
3849;SDS011;1940;51.052;13.678;2022-07-29T01:04:49;3.00;;;2.30;;
3849;SDS011;1940;51.052;13.678;2022-07-29T01:07:16;7.80;;;1.97;;
3849;SDS011;1940;51.052;13.678;2022-07-29T01:13:04;5.37;;;2.70;;
3849;SDS011;1940;51.052;13.678;2022-07-29T01:15:31;6.27;;;2.30;;
3849;SDS011;1940;51.052;13.678;2022-07-29T01:18:05;5.20;;;2.30;;
3849;SDS011;1940;51.052;13.678;2022-07-29T01:31:51;4.30;;;2.60;;
3849;SDS011;1940;51.052;13.678;2022-07-29T01:34:23;8.13;;;2.73;;
3849;SDS011;1940;51.052;13.678;2022-07-29T01:36:57;4.17;;;2.77;;
3849;SDS011;1940;51.052;13.678;2022-07-29T01:39:46;4.17;;;2.60;;
3849;SDS011;1940;51.052;13.678;2022-07-29T01:42:15;3.97;;;2.53;;
3849;SDS011;1940;51.052;13.678;2022-07-29T01:44:57;5.13;;;2.80;;
3849;SDS011;1940;51.052;13.678;2022-07-29T01:47:32;3.83;;;2.60;;
3849;SDS011;1940;51.052;13.678;2022-07-29T01:50:03;3.83;;;2.40;;
3849;SDS011;1940;51.052;13.678;2022-07-29T01:52:37;4.87;;;2.73;;
3849;SDS011;1940;51.052;13.678;2022-07-29T01:55:09;3.70;;;2.60;;
3849;SDS011;1940;51.052;13.678;2022-07-29T01:57:38;7.00;;;2.73;;
3849;SDS011;1940;51.052;13.678;2022-07-29T02:00:06;7.57;;;2.93;;
3849;SDS011;1940;51.052;13.678;2022-07-29T02:02:33;5.60;;;2.83;;
3849;SDS011;1940;51.052;13.678;2022-07-29T02:05:02;5.90;;;3.00;;
3849;SDS011;1940;51.052;13.678;2022-07-29T02:07:32;6.03;;;2.50;;
3849;SDS011;1940;51.052;13.678;2022-07-29T02:09:59;4.33;;;2.37;;
3849;SDS011;1940;51.052;13.678;2022-07-29T02:12:27;4.77;;;2.50;;
3849;SDS011;1940;51.052;13.678;2022-07-29T02:14:53;8.97;;;2.93;;
3849;SDS011;1940;51.052;13.678;2022-07-29T02:17:23;6.23;;;2.80;;
3849;SDS011;1940;51.052;13.678;2022-07-29T02:19:53;5.10;;;2.90;;
3849;SDS011;1940;51.052;13.678;2022-07-29T02:22:22;6.10;;;3.00;;
3849;SDS011;1940;51.052;13.678;2022-07-29T02:24:50;9.70;;;3.87;;
3849;SDS011;1940;51.052;13.678;2022-07-29T02:27:18;5.57;;;3.57;;
3849;SDS011;1940;51.052;13.678;2022-07-29T02:29:45;6.27;;;2.80;;
3849;SDS011;1940;51.052;13.678;2022-07-29T02:32:13;7.43;;;2.70;;
3849;SDS011;1940;51.052;13.678;2022-07-29T02:34:41;4.97;;;2.87;;
3849;SDS011;1940;51.052;13.678;2022-07-29T02:37:11;8.07;;;2.70;;
3849;SDS011;1940;51.052;13.678;2022-07-29T02:39:39;7.27;;;2.87;;
3849;SDS011;1940;51.052;13.678;2022-07-29T02:42:07;4.57;;;2.70;;
3849;SDS011;1940;51.052;13.678;2022-07-29T02:44:36;6.87;;;3.40;;
3849;SDS011;1940;51.052;13.678;2022-07-29T02:47:04;4.00;;;2.87;;
3849;SDS011;1940;51.052;13.678;2022-07-29T02:49:43;7.80;;;3.40;;
3849;SDS011;1940;51.052;13.678;2022-07-29T02:57:33;3.33;;;2.50;;
3849;SDS011;1940;51.052;13.678;2022-07-29T03:00:06;6.93;;;3.80;;
3849;SDS011;1940;51.052;13.678;2022-07-29T03:02:34;11.17;;;3.70;;
3849;SDS011;1940;51.052;13.678;2022-07-29T03:05:02;9.23;;;3.23;;
3849;SDS011;1940;51.052;13.678;2022-07-29T03:07:29;15.37;;;3.83;;
3849;SDS011;1940;51.052;13.678;2022-07-29T03:09:56;7.13;;;4.27;;
3849;SDS011;1940;51.052;13.678;2022-07-29T03:12:22;13.93;;;4.00;;
3849;SDS011;1940;51.052;13.678;2022-07-29T03:14:49;8.67;;;3.83;;
3849;SDS011;1940;51.052;13.678;2022-07-29T03:17:15;6.43;;;4.07;;
3849;SDS011;1940;51.052;13.678;2022-07-29T03:19:41;6.00;;;3.37;;
3849;SDS011;1940;51.052;13.678;2022-07-29T03:22:07;6.13;;;3.63;;
3849;SDS011;1940;51.052;13.678;2022-07-29T03:24:34;9.10;;;5.20;;
3849;SDS011;1940;51.052;13.678;2022-07-29T03:27:01;11.10;;;5.60;;
3849;SDS011;1940;51.052;13.678;2022-07-29T03:29:28;14.60;;;5.70;;
3849;SDS011;1940;51.052;13.678;2022-07-29T03:31:54;10.20;;;5.67;;
3849;SDS011;1940;51.052;13.678;2022-07-29T03:34:21;11.00;;;6.10;;
3849;SDS011;1940;51.052;13.678;2022-07-29T03:36:46;10.40;;;5.70;;
3849;SDS011;1940;51.052;13.678;2022-07-29T03:39:13;11.37;;;5.47;;
3849;SDS011;1940;51.052;13.678;2022-07-29T03:41:42;7.90;;;5.00;;
3849;SDS011;1940;51.052;13.678;2022-07-29T03:44:10;10.33;;;4.60;;
3849;SDS011;1940;51.052;13.678;2022-07-29T03:46:37;7.50;;;4.80;;
3849;SDS011;1940;51.052;13.678;2022-07-29T03:49:04;6.90;;;4.60;;
3849;SDS011;1940;51.052;13.678;2022-07-29T03:51:33;10.77;;;5.03;;
3849;SDS011;1940;51.052;13.678;2022-07-29T03:54:03;18.23;;;4.80;;
3849;SDS011;1940;51.052;13.678;2022-07-29T03:56:29;7.83;;;4.87;;
3849;SDS011;1940;51.052;13.678;2022-07-29T03:58:59;7.53;;;4.70;;
3849;SDS011;1940;51.052;13.678;2022-07-29T04:01:27;16.00;;;5.27;;
3849;SDS011;1940;51.052;13.678;2022-07-29T04:03:54;11.33;;;5.20;;
3849;SDS011;1940;51.052;13.678;2022-07-29T04:06:20;10.23;;;5.03;;
3849;SDS011;1940;51.052;13.678;2022-07-29T04:08:46;8.87;;;4.90;;
3849;SDS011;1940;51.052;13.678;2022-07-29T04:11:11;11.13;;;4.93;;
3849;SDS011;1940;51.052;13.678;2022-07-29T04:13:37;11.50;;;5.00;;
3849;SDS011;1940;51.052;13.678;2022-07-29T04:16:03;16.97;;;5.73;;
3849;SDS011;1940;51.052;13.678;2022-07-29T04:18:29;9.63;;;5.20;;
3849;SDS011;1940;51.052;13.678;2022-07-29T04:20:55;7.97;;;5.30;;
3849;SDS011;1940;51.052;13.678;2022-07-29T04:23:20;7.73;;;5.03;;
3849;SDS011;1940;51.052;13.678;2022-07-29T04:25:46;17.87;;;5.33;;
3849;SDS011;1940;51.052;13.678;2022-07-29T04:31:34;12.00;;;6.00;;
3849;SDS011;1940;51.052;13.678;2022-07-29T04:34:00;10.13;;;5.00;;
3849;SDS011;1940;51.052;13.678;2022-07-29T04:36:25;10.70;;;5.27;;
3849;SDS011;1940;51.052;13.678;2022-07-29T04:38:51;8.93;;;5.27;;
3849;SDS011;1940;51.052;13.678;2022-07-29T04:41:16;16.53;;;5.90;;
3849;SDS011;1940;51.052;13.678;2022-07-29T04:43:42;9.20;;;5.60;;
3849;SDS011;1940;51.052;13.678;2022-07-29T04:46:08;13.10;;;6.83;;
3849;SDS011;1940;51.052;13.678;2022-07-29T04:48:33;14.00;;;8.60;;
3849;SDS011;1940;51.052;13.678;2022-07-29T04:50:59;16.90;;;10.00;;
3849;SDS011;1940;51.052;13.678;2022-07-29T04:53:25;13.43;;;6.40;;
3849;SDS011;1940;51.052;13.678;2022-07-29T04:55:51;22.13;;;10.40;;
3849;SDS011;1940;51.052;13.678;2022-07-29T04:58:16;20.17;;;9.70;;
3849;SDS011;1940;51.052;13.678;2022-07-29T05:00:42;20.53;;;9.50;;
3849;SDS011;1940;51.052;13.678;2022-07-29T05:03:08;15.47;;;9.50;;
3849;SDS011;1940;51.052;13.678;2022-07-29T05:05:34;25.97;;;12.80;;
3849;SDS011;1940;51.052;13.678;2022-07-29T05:07:59;22.93;;;14.23;;
3849;SDS011;1940;51.052;13.678;2022-07-29T05:10:25;22.70;;;13.20;;
3849;SDS011;1940;51.052;13.678;2022-07-29T05:12:51;38.80;;;17.90;;
3849;SDS011;1940;51.052;13.678;2022-07-29T05:15:17;27.00;;;16.63;;
3849;SDS011;1940;51.052;13.678;2022-07-29T05:17:43;31.47;;;18.60;;
3849;SDS011;1940;51.052;13.678;2022-07-29T05:20:09;33.47;;;17.47;;
3849;SDS011;1940;51.052;13.678;2022-07-29T05:22:35;27.37;;;17.30;;
3849;SDS011;1940;51.052;13.678;2022-07-29T05:28:22;31.40;;;18.93;;
3849;SDS011;1940;51.052;13.678;2022-07-29T05:30:48;25.07;;;14.90;;
3849;SDS011;1940;51.052;13.678;2022-07-29T05:33:14;27.80;;;16.13;;
3849;SDS011;1940;51.052;13.678;2022-07-29T05:35:39;30.07;;;16.93;;
3849;SDS011;1940;51.052;13.678;2022-07-29T05:38:05;34.90;;;18.90;;
3849;SDS011;1940;51.052;13.678;2022-07-29T05:40:31;33.47;;;19.13;;
3849;SDS011;1940;51.052;13.678;2022-07-29T05:42:57;35.07;;;22.40;;
3849;SDS011;1940;51.052;13.678;2022-07-29T05:45:22;42.23;;;24.60;;
3849;SDS011;1940;51.052;13.678;2022-07-29T05:47:49;51.17;;;24.33;;
3849;SDS011;1940;51.052;13.678;2022-07-29T05:50:14;47.50;;;24.90;;
3849;SDS011;1940;51.052;13.678;2022-07-29T05:52:40;44.33;;;25.00;;
3849;SDS011;1940;51.052;13.678;2022-07-29T05:55:06;40.30;;;23.50;;
3849;SDS011;1940;51.052;13.678;2022-07-29T05:57:32;40.17;;;22.57;;
3849;SDS011;1940;51.052;13.678;2022-07-29T05:59:57;39.43;;;24.70;;
3849;SDS011;1940;51.052;13.678;2022-07-29T06:02:23;37.37;;;22.33;;
3849;SDS011;1940;51.052;13.678;2022-07-29T06:04:49;43.07;;;26.23;;
3849;SDS011;1940;51.052;13.678;2022-07-29T06:07:15;45.27;;;28.37;;
3849;SDS011;1940;51.052;13.678;2022-07-29T06:09:41;47.50;;;28.67;;
3849;SDS011;1940;51.052;13.678;2022-07-29T06:12:07;47.07;;;28.90;;
3849;SDS011;1940;51.052;13.678;2022-07-29T06:14:33;52.20;;;30.00;;
3849;SDS011;1940;51.052;13.678;2022-07-29T06:16:58;51.67;;;30.90;;
3849;SDS011;1940;51.052;13.678;2022-07-29T06:19:24;69.00;;;39.30;;
3849;SDS011;1940;51.052;13.678;2022-07-29T06:21:50;69.97;;;39.40;;
3849;SDS011;1940;51.052;13.678;2022-07-29T06:24:16;70.23;;;36.63;;
3849;SDS011;1940;51.052;13.678;2022-07-29T06:26:42;68.17;;;40.30;;
3849;SDS011;1940;51.052;13.678;2022-07-29T06:29:08;72.50;;;42.77;;
3849;SDS011;1940;51.052;13.678;2022-07-29T06:31:37;74.27;;;40.00;;
3849;SDS011;1940;51.052;13.678;2022-07-29T06:34:05;69.57;;;39.37;;
3849;SDS011;1940;51.052;13.678;2022-07-29T06:36:33;67.40;;;39.83;;
3849;SDS011;1940;51.052;13.678;2022-07-29T06:39:00;67.50;;;38.20;;
3849;SDS011;1940;51.052;13.678;2022-07-29T06:41:26;57.63;;;32.67;;
3849;SDS011;1940;51.052;13.678;2022-07-29T06:43:51;64.87;;;35.50;;
3849;SDS011;1940;51.052;13.678;2022-07-29T06:46:17;80.17;;;46.63;;
3849;SDS011;1940;51.052;13.678;2022-07-29T06:48:44;106.10;;;54.27;;
3849;SDS011;1940;51.052;13.678;2022-07-29T06:51:10;93.40;;;51.73;;
3849;SDS011;1940;51.052;13.678;2022-07-29T06:53:37;104.20;;;54.17;;
3849;SDS011;1940;51.052;13.678;2022-07-29T06:56:04;97.57;;;51.53;;
3849;SDS011;1940;51.052;13.678;2022-07-29T06:58:31;94.03;;;50.53;;
3849;SDS011;1940;51.052;13.678;2022-07-29T07:00:57;94.00;;;50.33;;
3849;SDS011;1940;51.052;13.678;2022-07-29T07:03:25;103.17;;;51.97;;
3849;SDS011;1940;51.052;13.678;2022-07-29T07:05:52;98.17;;;52.80;;
3849;SDS011;1940;51.052;13.678;2022-07-29T07:11:41;89.87;;;47.67;;
3849;SDS011;1940;51.052;13.678;2022-07-29T07:14:06;83.47;;;46.20;;
3849;SDS011;1940;51.052;13.678;2022-07-29T07:16:32;83.40;;;46.13;;
3849;SDS011;1940;51.052;13.678;2022-07-29T07:18:57;80.93;;;42.63;;
3849;SDS011;1940;51.052;13.678;2022-07-29T07:21:23;73.77;;;40.50;;
3849;SDS011;1940;51.052;13.678;2022-07-29T07:23:49;69.53;;;38.97;;
3849;SDS011;1940;51.052;13.678;2022-07-29T07:26:14;71.73;;;38.63;;
3849;SDS011;1940;51.052;13.678;2022-07-29T07:28:40;65.07;;;34.20;;
3849;SDS011;1940;51.052;13.678;2022-07-29T07:31:06;66.37;;;34.40;;
3849;SDS011;1940;51.052;13.678;2022-07-29T07:33:31;58.00;;;32.57;;
3849;SDS011;1940;51.052;13.678;2022-07-29T07:35:57;50.33;;;29.90;;
3849;SDS011;1940;51.052;13.678;2022-07-29T07:38:22;51.80;;;28.27;;
3849;SDS011;1940;51.052;13.678;2022-07-29T07:40:48;47.00;;;27.50;;
3849;SDS011;1940;51.052;13.678;2022-07-29T07:43:14;49.03;;;25.90;;
3849;SDS011;1940;51.052;13.678;2022-07-29T07:45:39;49.23;;;27.03;;
3849;SDS011;1940;51.052;13.678;2022-07-29T07:48:06;44.60;;;24.07;;
3849;SDS011;1940;51.052;13.678;2022-07-29T07:50:31;33.83;;;21.00;;
3849;SDS011;1940;51.052;13.678;2022-07-29T07:52:57;42.07;;;22.53;;
3849;SDS011;1940;51.052;13.678;2022-07-29T07:55:23;48.90;;;26.50;;
3849;SDS011;1940;51.052;13.678;2022-07-29T07:57:49;37.60;;;18.90;;
3849;SDS011;1940;51.052;13.678;2022-07-29T08:00:15;34.77;;;18.63;;
3849;SDS011;1940;51.052;13.678;2022-07-29T08:02:41;39.93;;;20.80;;
3849;SDS011;1940;51.052;13.678;2022-07-29T08:05:08;33.20;;;20.07;;
3849;SDS011;1940;51.052;13.678;2022-07-29T08:07:34;35.03;;;20.60;;
3849;SDS011;1940;51.052;13.678;2022-07-29T08:10:00;34.20;;;21.10;;
3849;SDS011;1940;51.052;13.678;2022-07-29T08:12:26;35.50;;;23.20;;
3849;SDS011;1940;51.052;13.678;2022-07-29T08:14:51;38.23;;;21.80;;
3849;SDS011;1940;51.052;13.678;2022-07-29T08:17:17;34.70;;;22.13;;
3849;SDS011;1940;51.052;13.678;2022-07-29T08:19:43;37.03;;;22.90;;
3849;SDS011;1940;51.052;13.678;2022-07-29T08:22:08;34.93;;;22.00;;
3849;SDS011;1940;51.052;13.678;2022-07-29T08:24:34;30.43;;;18.70;;
3849;SDS011;1940;51.052;13.678;2022-07-29T08:27:12;32.23;;;18.13;;
3849;SDS011;1940;51.052;13.678;2022-07-29T08:29:38;31.77;;;16.40;;
3849;SDS011;1940;51.052;13.678;2022-07-29T08:32:04;39.00;;;17.17;;
3849;SDS011;1940;51.052;13.678;2022-07-29T08:34:30;29.60;;;17.63;;
3849;SDS011;1940;51.052;13.678;2022-07-29T08:36:57;25.47;;;14.43;;
3849;SDS011;1940;51.052;13.678;2022-07-29T08:39:22;26.10;;;13.97;;
3849;SDS011;1940;51.052;13.678;2022-07-29T08:41:49;23.40;;;13.67;;
3849;SDS011;1940;51.052;13.678;2022-07-29T08:44:16;21.07;;;13.63;;
3849;SDS011;1940;51.052;13.678;2022-07-29T08:46:46;20.13;;;14.40;;
3849;SDS011;1940;51.052;13.678;2022-07-29T08:49:12;30.47;;;14.33;;
3849;SDS011;1940;51.052;13.678;2022-07-29T08:51:39;26.83;;;14.80;;
3849;SDS011;1940;51.052;13.678;2022-07-29T08:54:05;29.47;;;14.27;;
3849;SDS011;1940;51.052;13.678;2022-07-29T08:56:33;19.93;;;13.40;;
3849;SDS011;1940;51.052;13.678;2022-07-29T08:59:01;19.53;;;12.40;;
3849;SDS011;1940;51.052;13.678;2022-07-29T09:01:29;18.90;;;11.47;;
3849;SDS011;1940;51.052;13.678;2022-07-29T09:03:58;18.53;;;11.50;;
3849;SDS011;1940;51.052;13.678;2022-07-29T09:06:26;21.23;;;11.57;;
3849;SDS011;1940;51.052;13.678;2022-07-29T09:08:56;21.00;;;11.23;;
3849;SDS011;1940;51.052;13.678;2022-07-29T09:11:24;18.97;;;10.33;;
3849;SDS011;1940;51.052;13.678;2022-07-29T09:13:50;17.70;;;11.60;;
3849;SDS011;1940;51.052;13.678;2022-07-29T09:16:15;19.40;;;9.77;;
3849;SDS011;1940;51.052;13.678;2022-07-29T09:18:42;20.57;;;9.53;;
3849;SDS011;1940;51.052;13.678;2022-07-29T09:21:10;16.80;;;9.70;;
3849;SDS011;1940;51.052;13.678;2022-07-29T09:24:14;15.90;;;10.03;;
3849;SDS011;1940;51.052;13.678;2022-07-29T09:26:41;26.60;;;12.87;;
3849;SDS011;1940;51.052;13.678;2022-07-29T09:31:39;15.73;;;10.70;;
3849;SDS011;1940;51.052;13.678;2022-07-29T09:34:07;13.57;;;10.27;;
3849;SDS011;1940;51.052;13.678;2022-07-29T09:39:09;15.60;;;9.50;;
3849;SDS011;1940;51.052;13.678;2022-07-29T09:44:11;18.97;;;10.87;;
3849;SDS011;1940;51.052;13.678;2022-07-29T09:46:37;17.83;;;9.27;;
3849;SDS011;1940;51.052;13.678;2022-07-29T09:49:06;16.20;;;9.80;;
3849;SDS011;1940;51.052;13.678;2022-07-29T09:51:33;17.10;;;11.13;;
3849;SDS011;1940;51.052;13.678;2022-07-29T09:54:00;17.90;;;11.87;;
3849;SDS011;1940;51.052;13.678;2022-07-29T09:56:41;16.47;;;10.53;;
3849;SDS011;1940;51.052;13.678;2022-07-29T09:59:08;19.77;;;10.63;;
3849;SDS011;1940;51.052;13.678;2022-07-29T10:01:36;19.93;;;10.77;;
3849;SDS011;1940;51.052;13.678;2022-07-29T10:04:01;16.23;;;10.63;;
3849;SDS011;1940;51.052;13.678;2022-07-29T10:06:27;22.30;;;12.00;;
3849;SDS011;1940;51.052;13.678;2022-07-29T10:08:53;20.37;;;11.63;;
3849;SDS011;1940;51.052;13.678;2022-07-29T10:11:19;18.13;;;12.43;;
3849;SDS011;1940;51.052;13.678;2022-07-29T10:13:45;18.60;;;12.20;;
3849;SDS011;1940;51.052;13.678;2022-07-29T10:16:13;19.07;;;11.50;;
3849;SDS011;1940;51.052;13.678;2022-07-29T10:18:40;18.73;;;12.37;;
3849;SDS011;1940;51.052;13.678;2022-07-29T10:21:07;11.83;;;9.20;;
3849;SDS011;1940;51.052;13.678;2022-07-29T10:23:34;15.37;;;10.03;;
3849;SDS011;1940;51.052;13.678;2022-07-29T10:26:00;12.20;;;8.93;;
3849;SDS011;1940;51.052;13.678;2022-07-29T10:28:27;14.20;;;9.60;;
3849;SDS011;1940;51.052;13.678;2022-07-29T10:30:58;16.53;;;8.90;;
3849;SDS011;1940;51.052;13.678;2022-07-29T10:36:05;14.90;;;9.20;;
3849;SDS011;1940;51.052;13.678;2022-07-29T10:43:51;13.10;;;8.33;;
3849;SDS011;1940;51.052;13.678;2022-07-29T10:46:19;16.03;;;8.47;;
3849;SDS011;1940;51.052;13.678;2022-07-29T10:49:04;13.20;;;7.80;;
3849;SDS011;1940;51.052;13.678;2022-07-29T10:57:37;12.40;;;6.60;;
3849;SDS011;1940;51.052;13.678;2022-07-29T11:05:16;5.00;;;4.17;;
3849;SDS011;1940;51.052;13.678;2022-07-29T11:10:37;7.17;;;5.10;;
3849;SDS011;1940;51.052;13.678;2022-07-29T11:13:03;5.63;;;4.70;;
3849;SDS011;1940;51.052;13.678;2022-07-29T11:15:29;6.47;;;4.80;;
3849;SDS011;1940;51.052;13.678;2022-07-29T11:18:19;6.63;;;4.80;;
3849;SDS011;1940;51.052;13.678;2022-07-29T11:20:46;5.00;;;2.93;;
3849;SDS011;1940;51.052;13.678;2022-07-29T11:23:30;4.60;;;3.00;;
3849;SDS011;1940;51.052;13.678;2022-07-29T11:31:19;2.47;;;2.27;;
3849;SDS011;1940;51.052;13.678;2022-07-29T11:34:15;3.33;;;2.60;;
3849;SDS011;1940;51.052;13.678;2022-07-29T11:47:30;3.57;;;2.70;;
3849;SDS011;1940;51.052;13.678;2022-07-29T11:49:57;6.03;;;3.00;;
3849;SDS011;1940;51.052;13.678;2022-07-29T11:52:23;2.70;;;2.50;;
3849;SDS011;1940;51.052;13.678;2022-07-29T11:55:03;5.80;;;3.00;;
3849;SDS011;1940;51.052;13.678;2022-07-29T11:57:30;4.27;;;2.80;;
3849;SDS011;1940;51.052;13.678;2022-07-29T11:59:58;3.80;;;2.90;;
3849;SDS011;1940;51.052;13.678;2022-07-29T12:02:24;3.60;;;2.80;;
3849;SDS011;1940;51.052;13.678;2022-07-29T12:07:29;3.20;;;2.90;;
3849;SDS011;1940;51.052;13.678;2022-07-29T12:09:56;7.13;;;2.83;;
3849;SDS011;1940;51.052;13.678;2022-07-29T12:12:21;3.23;;;2.87;;
3849;SDS011;1940;51.052;13.678;2022-07-29T12:14:47;4.97;;;3.30;;
3849;SDS011;1940;51.052;13.678;2022-07-29T12:19:52;6.40;;;3.20;;
3849;SDS011;1940;51.052;13.678;2022-07-29T12:22:31;3.30;;;2.80;;
3849;SDS011;1940;51.052;13.678;2022-07-29T12:25:08;5.67;;;3.00;;
3849;SDS011;1940;51.052;13.678;2022-07-29T12:27:39;3.00;;;2.77;;
3849;SDS011;1940;51.052;13.678;2022-07-29T12:30:06;5.60;;;2.90;;
3849;SDS011;1940;51.052;13.678;2022-07-29T12:32:34;7.50;;;2.60;;
3849;SDS011;1940;51.052;13.678;2022-07-29T12:35:02;3.10;;;2.80;;
3849;SDS011;1940;51.052;13.678;2022-07-29T12:37:30;3.53;;;3.23;;
3849;SDS011;1940;51.052;13.678;2022-07-29T12:39:58;3.23;;;2.93;;
3849;SDS011;1940;51.052;13.678;2022-07-29T12:42:24;5.60;;;3.07;;
3849;SDS011;1940;51.052;13.678;2022-07-29T12:44:50;4.60;;;3.93;;
3849;SDS011;1940;51.052;13.678;2022-07-29T12:47:17;4.63;;;3.60;;
3849;SDS011;1940;51.052;13.678;2022-07-29T12:49:43;4.63;;;3.80;;
3849;SDS011;1940;51.052;13.678;2022-07-29T12:52:26;4.70;;;3.47;;
3849;SDS011;1940;51.052;13.678;2022-07-29T12:54:53;4.17;;;3.77;;
3849;SDS011;1940;51.052;13.678;2022-07-29T12:57:18;3.87;;;3.47;;
3849;SDS011;1940;51.052;13.678;2022-07-29T12:59:44;4.70;;;3.60;;
3849;SDS011;1940;51.052;13.678;2022-07-29T13:02:20;4.50;;;3.30;;
3849;SDS011;1940;51.052;13.678;2022-07-29T13:04:59;2.93;;;2.70;;
3849;SDS011;1940;51.052;13.678;2022-07-29T13:07:26;5.90;;;3.10;;
3849;SDS011;1940;51.052;13.678;2022-07-29T13:09:54;4.77;;;3.53;;
3849;SDS011;1940;51.052;13.678;2022-07-29T13:12:36;4.53;;;3.07;;
3849;SDS011;1940;51.052;13.678;2022-07-29T13:15:13;4.40;;;3.17;;
3849;SDS011;1940;51.052;13.678;2022-07-29T13:17:41;5.57;;;3.73;;
3849;SDS011;1940;51.052;13.678;2022-07-29T13:20:09;7.13;;;3.23;;
3849;SDS011;1940;51.052;13.678;2022-07-29T13:22:40;4.60;;;3.50;;
3849;SDS011;1940;51.052;13.678;2022-07-29T13:25:07;4.97;;;3.30;;
3849;SDS011;1940;51.052;13.678;2022-07-29T13:27:34;3.90;;;2.93;;
3849;SDS011;1940;51.052;13.678;2022-07-29T13:30:03;5.83;;;3.10;;
3849;SDS011;1940;51.052;13.678;2022-07-29T13:32:33;3.67;;;3.37;;
3849;SDS011;1940;51.052;13.678;2022-07-29T13:35:01;2.90;;;2.70;;
3849;SDS011;1940;51.052;13.678;2022-07-29T13:37:28;5.37;;;2.87;;
3849;SDS011;1940;51.052;13.678;2022-07-29T13:39:55;3.87;;;2.80;;
3849;SDS011;1940;51.052;13.678;2022-07-29T13:42:22;7.70;;;3.70;;
3849;SDS011;1940;51.052;13.678;2022-07-29T13:44:48;4.00;;;3.17;;
3849;SDS011;1940;51.052;13.678;2022-07-29T13:47:15;3.50;;;3.20;;
3849;SDS011;1940;51.052;13.678;2022-07-29T13:49:41;4.17;;;3.50;;
3849;SDS011;1940;51.052;13.678;2022-07-29T13:52:07;4.90;;;3.30;;
3849;SDS011;1940;51.052;13.678;2022-07-29T13:57:55;6.10;;;2.80;;
3849;SDS011;1940;51.052;13.678;2022-07-29T14:00:20;4.57;;;2.97;;
3849;SDS011;1940;51.052;13.678;2022-07-29T14:02:48;3.13;;;2.83;;
3849;SDS011;1940;51.052;13.678;2022-07-29T14:05:14;3.40;;;3.10;;
3849;SDS011;1940;51.052;13.678;2022-07-29T14:07:39;4.63;;;3.17;;
3849;SDS011;1940;51.052;13.678;2022-07-29T14:10:05;5.03;;;3.10;;
3849;SDS011;1940;51.052;13.678;2022-07-29T14:12:32;4.00;;;3.30;;
3849;SDS011;1940;51.052;13.678;2022-07-29T14:14:57;4.57;;;2.80;;
3849;SDS011;1940;51.052;13.678;2022-07-29T14:17:23;3.40;;;2.97;;
3849;SDS011;1940;51.052;13.678;2022-07-29T14:19:48;3.50;;;3.20;;
3849;SDS011;1940;51.052;13.678;2022-07-29T14:22:14;7.37;;;3.00;;
3849;SDS011;1940;51.052;13.678;2022-07-29T14:24:40;3.50;;;3.20;;
3849;SDS011;1940;51.052;13.678;2022-07-29T14:27:06;3.90;;;3.37;;
3849;SDS011;1940;51.052;13.678;2022-07-29T14:29:32;5.30;;;3.30;;
3849;SDS011;1940;51.052;13.678;2022-07-29T14:31:58;7.27;;;3.53;;
3849;SDS011;1940;51.052;13.678;2022-07-29T14:34:24;4.67;;;3.13;;
3849;SDS011;1940;51.052;13.678;2022-07-29T14:36:49;5.10;;;2.87;;
3849;SDS011;1940;51.052;13.678;2022-07-29T14:39:15;3.40;;;3.03;;
3849;SDS011;1940;51.052;13.678;2022-07-29T14:41:41;5.27;;;3.43;;
3849;SDS011;1940;51.052;13.678;2022-07-29T14:44:07;6.87;;;3.57;;
3849;SDS011;1940;51.052;13.678;2022-07-29T14:46:33;3.03;;;2.80;;
3849;SDS011;1940;51.052;13.678;2022-07-29T14:48:59;4.77;;;3.60;;
3849;SDS011;1940;51.052;13.678;2022-07-29T14:51:25;3.40;;;3.10;;
3849;SDS011;1940;51.052;13.678;2022-07-29T14:53:50;3.70;;;3.30;;
3849;SDS011;1940;51.052;13.678;2022-07-29T14:56:16;3.73;;;3.30;;
3849;SDS011;1940;51.052;13.678;2022-07-29T14:58:42;6.90;;;3.50;;
3849;SDS011;1940;51.052;13.678;2022-07-29T15:01:08;5.53;;;3.50;;
3849;SDS011;1940;51.052;13.678;2022-07-29T15:03:34;3.70;;;3.13;;
3849;SDS011;1940;51.052;13.678;2022-07-29T15:05:59;4.40;;;2.90;;
3849;SDS011;1940;51.052;13.678;2022-07-29T15:08:25;4.20;;;2.90;;
3849;SDS011;1940;51.052;13.678;2022-07-29T15:10:53;6.63;;;3.23;;
3849;SDS011;1940;51.052;13.678;2022-07-29T15:13:18;3.57;;;3.13;;
3849;SDS011;1940;51.052;13.678;2022-07-29T15:15:44;4.77;;;3.60;;
3849;SDS011;1940;51.052;13.678;2022-07-29T15:18:10;5.30;;;3.47;;
3849;SDS011;1940;51.052;13.678;2022-07-29T15:20:36;4.67;;;3.67;;
3849;SDS011;1940;51.052;13.678;2022-07-29T15:23:01;3.90;;;3.13;;
3849;SDS011;1940;51.052;13.678;2022-07-29T15:25:27;5.33;;;3.10;;
3849;SDS011;1940;51.052;13.678;2022-07-29T15:27:53;5.17;;;3.40;;
3849;SDS011;1940;51.052;13.678;2022-07-29T15:30:20;3.40;;;3.10;;
3849;SDS011;1940;51.052;13.678;2022-07-29T15:32:45;3.30;;;2.87;;
3849;SDS011;1940;51.052;13.678;2022-07-29T15:35:11;3.60;;;3.30;;
3849;SDS011;1940;51.052;13.678;2022-07-29T15:37:37;11.70;;;3.30;;
3849;SDS011;1940;51.052;13.678;2022-07-29T15:40:06;4.20;;;3.17;;
3849;SDS011;1940;51.052;13.678;2022-07-29T15:42:32;4.10;;;3.20;;
3849;SDS011;1940;51.052;13.678;2022-07-29T15:45:02;3.80;;;2.80;;
3849;SDS011;1940;51.052;13.678;2022-07-29T15:47:28;4.47;;;3.10;;
3849;SDS011;1940;51.052;13.678;2022-07-29T15:49:54;5.23;;;3.20;;
3849;SDS011;1940;51.052;13.678;2022-07-29T15:52:19;3.83;;;3.53;;
3849;SDS011;1940;51.052;13.678;2022-07-29T15:54:45;8.53;;;3.53;;
3849;SDS011;1940;51.052;13.678;2022-07-29T15:57:11;5.27;;;3.50;;
3849;SDS011;1940;51.052;13.678;2022-07-29T15:59:37;7.50;;;3.97;;
3849;SDS011;1940;51.052;13.678;2022-07-29T16:02:02;5.80;;;3.83;;
3849;SDS011;1940;51.052;13.678;2022-07-29T16:04:29;3.93;;;3.40;;
3849;SDS011;1940;51.052;13.678;2022-07-29T16:06:55;4.30;;;3.80;;
3849;SDS011;1940;51.052;13.678;2022-07-29T16:09:21;5.20;;;4.00;;
3849;SDS011;1940;51.052;13.678;2022-07-29T16:11:47;5.83;;;3.80;;
3849;SDS011;1940;51.052;13.678;2022-07-29T16:14:15;8.73;;;5.70;;
3849;SDS011;1940;51.052;13.678;2022-07-29T16:16:41;10.47;;;7.10;;